sensor_id;sensor_type;location;lat;lon;timestamp;temperature;humidity
1417;DHT22;703;51.162;13.574;2022-08-21T00:01:22;18.20;99.90
1417;DHT22;703;51.162;13.574;2022-08-21T00:03:48;18.20;99.90
1417;DHT22;703;51.162;13.574;2022-08-21T00:06:14;18.20;99.90
1417;DHT22;703;51.162;13.574;2022-08-21T00:08:40;18.20;99.90
1417;DHT22;703;51.162;13.574;2022-08-21T00:11:06;18.20;99.90
1417;DHT22;703;51.162;13.574;2022-08-21T00:13:32;18.20;99.90
1417;DHT22;703;51.162;13.574;2022-08-21T00:15:58;18.20;99.90
1417;DHT22;703;51.162;13.574;2022-08-21T00:18:24;18.20;99.90
1417;DHT22;703;51.162;13.574;2022-08-21T00:20:50;18.20;99.90
1417;DHT22;703;51.162;13.574;2022-08-21T00:23:16;18.20;99.90
1417;DHT22;703;51.162;13.574;2022-08-21T00:25:43;18.20;99.90
1417;DHT22;703;51.162;13.574;2022-08-21T00:28:09;18.20;99.90
1417;DHT22;703;51.162;13.574;2022-08-21T00:30:35;18.10;99.90
1417;DHT22;703;51.162;13.574;2022-08-21T00:33:02;18.20;99.90
1417;DHT22;703;51.162;13.574;2022-08-21T00:35:31;18.20;99.90
1417;DHT22;703;51.162;13.574;2022-08-21T00:37:57;18.20;99.90
1417;DHT22;703;51.162;13.574;2022-08-21T00:40:33;18.20;99.90
1417;DHT22;703;51.162;13.574;2022-08-21T00:43:04;18.20;99.90
1417;DHT22;703;51.162;13.574;2022-08-21T00:45:29;18.10;99.90
1417;DHT22;703;51.162;13.574;2022-08-21T00:47:56;18.20;99.90
1417;DHT22;703;51.162;13.574;2022-08-21T00:50:22;18.20;99.90
1417;DHT22;703;51.162;13.574;2022-08-21T00:52:51;18.20;99.90
1417;DHT22;703;51.162;13.574;2022-08-21T00:55:18;18.20;99.90
1417;DHT22;703;51.162;13.574;2022-08-21T00:57:49;18.20;99.90
1417;DHT22;703;51.162;13.574;2022-08-21T01:00:19;18.10;99.90
1417;DHT22;703;51.162;13.574;2022-08-21T01:02:45;18.10;99.90
1417;DHT22;703;51.162;13.574;2022-08-21T01:05:11;18.00;99.90
1417;DHT22;703;51.162;13.574;2022-08-21T01:07:37;18.00;99.90
1417;DHT22;703;51.162;13.574;2022-08-21T01:10:05;17.90;99.90
1417;DHT22;703;51.162;13.574;2022-08-21T01:12:32;17.90;99.90
1417;DHT22;703;51.162;13.574;2022-08-21T01:14:58;17.80;99.90
1417;DHT22;703;51.162;13.574;2022-08-21T01:17:24;17.70;99.90
1417;DHT22;703;51.162;13.574;2022-08-21T01:19:50;17.60;99.90
1417;DHT22;703;51.162;13.574;2022-08-21T01:22:15;17.50;99.90
1417;DHT22;703;51.162;13.574;2022-08-21T01:24:41;17.50;99.90
1417;DHT22;703;51.162;13.574;2022-08-21T01:27:06;15.90;99.90
1417;DHT22;703;51.162;13.574;2022-08-21T01:29:43;17.50;99.90
1417;DHT22;703;51.162;13.574;2022-08-21T01:32:14;17.50;99.90
1417;DHT22;703;51.162;13.574;2022-08-21T01:34:44;17.60;99.90
1417;DHT22;703;51.162;13.574;2022-08-21T01:37:11;17.60;99.90
1417;DHT22;703;51.162;13.574;2022-08-21T01:39:37;17.60;99.90
1417;DHT22;703;51.162;13.574;2022-08-21T01:42:03;17.60;99.90
1417;DHT22;703;51.162;13.574;2022-08-21T01:44:30;17.50;99.90
1417;DHT22;703;51.162;13.574;2022-08-21T01:46:58;17.50;99.90
1417;DHT22;703;51.162;13.574;2022-08-21T01:49:24;17.50;99.90
1417;DHT22;703;51.162;13.574;2022-08-21T01:51:49;17.50;99.90
1417;DHT22;703;51.162;13.574;2022-08-21T01:54:15;17.40;99.90
1417;DHT22;703;51.162;13.574;2022-08-21T01:56:45;17.50;99.90
1417;DHT22;703;51.162;13.574;2022-08-21T01:59:11;17.50;99.90
1417;DHT22;703;51.162;13.574;2022-08-21T02:01:37;17.50;99.90
1417;DHT22;703;51.162;13.574;2022-08-21T02:04:05;17.50;99.90
1417;DHT22;703;51.162;13.574;2022-08-21T02:06:31;17.50;99.90
1417;DHT22;703;51.162;13.574;2022-08-21T02:08:57;17.50;99.90
1417;DHT22;703;51.162;13.574;2022-08-21T02:11:23;17.50;99.90
1417;DHT22;703;51.162;13.574;2022-08-21T02:13:48;17.50;99.90
1417;DHT22;703;51.162;13.574;2022-08-21T02:16:14;17.50;99.90
1417;DHT22;703;51.162;13.574;2022-08-21T02:18:40;17.50;99.90
1417;DHT22;703;51.162;13.574;2022-08-21T02:21:07;17.50;99.90
1417;DHT22;703;51.162;13.574;2022-08-21T02:23:32;17.40;99.90
1417;DHT22;703;51.162;13.574;2022-08-21T02:25:59;17.50;99.90
1417;DHT22;703;51.162;13.574;2022-08-21T02:28:25;17.50;99.90
1417;DHT22;703;51.162;13.574;2022-08-21T02:30:51;17.40;99.90
1417;DHT22;703;51.162;13.574;2022-08-21T02:33:18;17.50;99.90
1417;DHT22;703;51.162;13.574;2022-08-21T02:35:45;17.50;99.90
1417;DHT22;703;51.162;13.574;2022-08-21T02:38:16;17.50;99.90
1417;DHT22;703;51.162;13.574;2022-08-21T02:40:44;17.40;99.90
1417;DHT22;703;51.162;13.574;2022-08-21T02:43:11;17.50;99.90
1417;DHT22;703;51.162;13.574;2022-08-21T02:45:38;17.50;99.90
1417;DHT22;703;51.162;13.574;2022-08-21T02:48:07;17.50;99.90
1417;DHT22;703;51.162;13.574;2022-08-21T02:50:36;17.50;99.90
1417;DHT22;703;51.162;13.574;2022-08-21T02:53:03;17.50;99.90
1417;DHT22;703;51.162;13.574;2022-08-21T02:55:30;17.40;99.90
1417;DHT22;703;51.162;13.574;2022-08-21T02:57:57;17.50;99.90
1417;DHT22;703;51.162;13.574;2022-08-21T03:00:25;17.50;99.90
1417;DHT22;703;51.162;13.574;2022-08-21T03:02:56;17.50;99.90
1417;DHT22;703;51.162;13.574;2022-08-21T03:05:24;17.50;99.90
1417;DHT22;703;51.162;13.574;2022-08-21T03:07:49;17.50;99.90
1417;DHT22;703;51.162;13.574;2022-08-21T03:10:16;17.50;99.90
1417;DHT22;703;51.162;13.574;2022-08-21T03:12:45;17.50;99.90
1417;DHT22;703;51.162;13.574;2022-08-21T03:15:12;17.50;99.90
1417;DHT22;703;51.162;13.574;2022-08-21T03:17:38;17.60;99.90
1417;DHT22;703;51.162;13.574;2022-08-21T03:20:07;17.50;99.90
1417;DHT22;703;51.162;13.574;2022-08-21T03:22:33;17.50;99.90
1417;DHT22;703;51.162;13.574;2022-08-21T03:24:59;17.60;99.90
1417;DHT22;703;51.162;13.574;2022-08-21T03:27:26;17.50;99.90
1417;DHT22;703;51.162;13.574;2022-08-21T03:29:52;17.50;99.90
1417;DHT22;703;51.162;13.574;2022-08-21T03:32:18;17.50;99.90
1417;DHT22;703;51.162;13.574;2022-08-21T03:34:45;17.60;99.90
1417;DHT22;703;51.162;13.574;2022-08-21T03:37:11;17.70;99.90
1417;DHT22;703;51.162;13.574;2022-08-21T03:39:38;17.70;99.90
1417;DHT22;703;51.162;13.574;2022-08-21T03:42:03;17.70;99.90
1417;DHT22;703;51.162;13.574;2022-08-21T03:44:30;17.70;99.90
1417;DHT22;703;51.162;13.574;2022-08-21T03:46:56;17.70;99.90
1417;DHT22;703;51.162;13.574;2022-08-21T03:49:23;17.70;99.90
1417;DHT22;703;51.162;13.574;2022-08-21T03:51:51;17.70;99.90
1417;DHT22;703;51.162;13.574;2022-08-21T03:54:17;17.80;99.90
1417;DHT22;703;51.162;13.574;2022-08-21T03:56:43;17.70;99.90
1417;DHT22;703;51.162;13.574;2022-08-21T03:59:08;17.70;99.90
1417;DHT22;703;51.162;13.574;2022-08-21T04:01:34;17.70;99.90
1417;DHT22;703;51.162;13.574;2022-08-21T04:03:59;17.70;99.90
1417;DHT22;703;51.162;13.574;2022-08-21T04:06:25;17.70;99.90
1417;DHT22;703;51.162;13.574;2022-08-21T04:08:52;17.70;99.90
1417;DHT22;703;51.162;13.574;2022-08-21T04:11:18;17.70;99.90
1417;DHT22;703;51.162;13.574;2022-08-21T04:13:45;17.60;99.90
1417;DHT22;703;51.162;13.574;2022-08-21T04:16:14;17.70;99.90
1417;DHT22;703;51.162;13.574;2022-08-21T04:18:40;17.60;99.90
1417;DHT22;703;51.162;13.574;2022-08-21T04:21:07;17.60;99.90
1417;DHT22;703;51.162;13.574;2022-08-21T04:23:33;17.60;99.90
1417;DHT22;703;51.162;13.574;2022-08-21T04:25:59;17.60;99.90
1417;DHT22;703;51.162;13.574;2022-08-21T04:28:26;17.60;99.90
1417;DHT22;703;51.162;13.574;2022-08-21T04:30:53;17.60;99.90
1417;DHT22;703;51.162;13.574;2022-08-21T04:33:20;17.60;99.90
1417;DHT22;703;51.162;13.574;2022-08-21T04:35:46;17.60;99.90
1417;DHT22;703;51.162;13.574;2022-08-21T04:38:12;17.70;99.90
1417;DHT22;703;51.162;13.574;2022-08-21T04:40:37;17.70;99.90
1417;DHT22;703;51.162;13.574;2022-08-21T04:43:08;17.70;99.90
1417;DHT22;703;51.162;13.574;2022-08-21T04:45:40;17.70;99.90
1417;DHT22;703;51.162;13.574;2022-08-21T04:48:09;17.70;99.90
1417;DHT22;703;51.162;13.574;2022-08-21T04:50:46;17.70;99.90
1417;DHT22;703;51.162;13.574;2022-08-21T04:53:18;17.70;99.90
1417;DHT22;703;51.162;13.574;2022-08-21T04:55:47;17.70;99.90
1417;DHT22;703;51.162;13.574;2022-08-21T04:58:15;17.80;99.90
1417;DHT22;703;51.162;13.574;2022-08-21T05:00:43;17.80;99.90
1417;DHT22;703;51.162;13.574;2022-08-21T05:03:11;17.80;99.90
1417;DHT22;703;51.162;13.574;2022-08-21T05:05:37;17.80;99.90
1417;DHT22;703;51.162;13.574;2022-08-21T05:08:05;17.80;99.90
1417;DHT22;703;51.162;13.574;2022-08-21T05:10:32;17.80;99.90
1417;DHT22;703;51.162;13.574;2022-08-21T05:12:59;17.80;99.90
1417;DHT22;703;51.162;13.574;2022-08-21T05:15:25;17.80;99.90
1417;DHT22;703;51.162;13.574;2022-08-21T05:17:51;17.80;99.90
1417;DHT22;703;51.162;13.574;2022-08-21T05:20:17;17.80;99.90
1417;DHT22;703;51.162;13.574;2022-08-21T05:22:43;17.80;99.90
1417;DHT22;703;51.162;13.574;2022-08-21T05:25:09;17.90;99.90
1417;DHT22;703;51.162;13.574;2022-08-21T05:27:35;17.80;99.90
1417;DHT22;703;51.162;13.574;2022-08-21T05:30:01;17.90;99.90
1417;DHT22;703;51.162;13.574;2022-08-21T05:32:27;17.90;99.90
1417;DHT22;703;51.162;13.574;2022-08-21T05:34:54;17.80;99.90
1417;DHT22;703;51.162;13.574;2022-08-21T05:37:20;17.80;99.90
1417;DHT22;703;51.162;13.574;2022-08-21T05:39:45;17.90;99.90
1417;DHT22;703;51.162;13.574;2022-08-21T05:42:11;17.90;99.90
1417;DHT22;703;51.162;13.574;2022-08-21T05:44:37;18.00;99.90
1417;DHT22;703;51.162;13.574;2022-08-21T05:47:07;18.00;99.90
1417;DHT22;703;51.162;13.574;2022-08-21T05:49:34;17.90;99.90
1417;DHT22;703;51.162;13.574;2022-08-21T05:52:00;17.90;99.90
1417;DHT22;703;51.162;13.574;2022-08-21T05:54:26;17.90;99.90
1417;DHT22;703;51.162;13.574;2022-08-21T05:56:52;18.00;99.90
1417;DHT22;703;51.162;13.574;2022-08-21T05:59:18;18.00;99.90
1417;DHT22;703;51.162;13.574;2022-08-21T06:01:44;18.00;99.90
1417;DHT22;703;51.162;13.574;2022-08-21T06:04:11;18.00;99.90
1417;DHT22;703;51.162;13.574;2022-08-21T06:06:37;18.00;99.90
1417;DHT22;703;51.162;13.574;2022-08-21T06:09:04;18.10;99.90
1417;DHT22;703;51.162;13.574;2022-08-21T06:11:31;18.10;99.90
1417;DHT22;703;51.162;13.574;2022-08-21T06:13:57;18.20;99.90
1417;DHT22;703;51.162;13.574;2022-08-21T06:16:22;18.20;99.90
1417;DHT22;703;51.162;13.574;2022-08-21T06:18:48;18.20;99.90
1417;DHT22;703;51.162;13.574;2022-08-21T06:21:14;18.10;99.90
1417;DHT22;703;51.162;13.574;2022-08-21T06:23:41;18.00;99.90
1417;DHT22;703;51.162;13.574;2022-08-21T06:26:08;18.10;99.90
1417;DHT22;703;51.162;13.574;2022-08-21T06:28:35;19.40;99.90
1417;DHT22;703;51.162;13.574;2022-08-21T06:31:19;18.10;99.90
1417;DHT22;703;51.162;13.574;2022-08-21T06:33:45;18.10;99.90
1417;DHT22;703;51.162;13.574;2022-08-21T06:36:12;18.20;99.90
1417;DHT22;703;51.162;13.574;2022-08-21T06:38:38;18.30;99.90
1417;DHT22;703;51.162;13.574;2022-08-21T06:41:04;18.30;99.90
1417;DHT22;703;51.162;13.574;2022-08-21T06:43:30;18.30;99.90
1417;DHT22;703;51.162;13.574;2022-08-21T06:45:56;18.30;99.90
1417;DHT22;703;51.162;13.574;2022-08-21T06:48:22;18.30;99.90
1417;DHT22;703;51.162;13.574;2022-08-21T06:50:48;18.30;99.90
1417;DHT22;703;51.162;13.574;2022-08-21T06:53:17;18.30;99.90
1417;DHT22;703;51.162;13.574;2022-08-21T06:55:43;18.50;99.90
1417;DHT22;703;51.162;13.574;2022-08-21T06:58:09;18.60;99.90
1417;DHT22;703;51.162;13.574;2022-08-21T07:00:39;18.40;99.90
1417;DHT22;703;51.162;13.574;2022-08-21T07:03:04;18.40;99.90
1417;DHT22;703;51.162;13.574;2022-08-21T07:05:30;18.40;99.90
1417;DHT22;703;51.162;13.574;2022-08-21T07:07:56;18.40;99.90
1417;DHT22;703;51.162;13.574;2022-08-21T07:10:23;18.30;99.90
1417;DHT22;703;51.162;13.574;2022-08-21T07:12:50;18.50;99.90
1417;DHT22;703;51.162;13.574;2022-08-21T07:15:16;18.60;99.90
1417;DHT22;703;51.162;13.574;2022-08-21T07:17:41;18.70;99.90
1417;DHT22;703;51.162;13.574;2022-08-21T07:20:07;18.90;99.90
1417;DHT22;703;51.162;13.574;2022-08-21T07:22:35;18.80;99.90
1417;DHT22;703;51.162;13.574;2022-08-21T07:25:01;18.60;99.90
1417;DHT22;703;51.162;13.574;2022-08-21T07:27:27;18.70;99.90
1417;DHT22;703;51.162;13.574;2022-08-21T07:29:52;18.80;99.90
1417;DHT22;703;51.162;13.574;2022-08-21T07:32:18;18.80;99.90
1417;DHT22;703;51.162;13.574;2022-08-21T07:34:44;18.80;99.90
1417;DHT22;703;51.162;13.574;2022-08-21T07:37:09;19.00;99.90
1417;DHT22;703;51.162;13.574;2022-08-21T07:39:35;19.00;99.90
1417;DHT22;703;51.162;13.574;2022-08-21T07:42:01;19.00;99.90
1417;DHT22;703;51.162;13.574;2022-08-21T07:44:28;18.90;99.90
1417;DHT22;703;51.162;13.574;2022-08-21T07:46:54;18.80;99.90
1417;DHT22;703;51.162;13.574;2022-08-21T07:49:19;18.80;99.90
1417;DHT22;703;51.162;13.574;2022-08-21T07:51:45;18.90;99.90
1417;DHT22;703;51.162;13.574;2022-08-21T07:54:11;18.90;99.90
1417;DHT22;703;51.162;13.574;2022-08-21T07:56:36;18.90;99.90
1417;DHT22;703;51.162;13.574;2022-08-21T07:59:02;19.00;99.90
1417;DHT22;703;51.162;13.574;2022-08-21T08:01:28;18.90;99.90
1417;DHT22;703;51.162;13.574;2022-08-21T08:03:54;19.00;99.90
1417;DHT22;703;51.162;13.574;2022-08-21T08:06:20;18.90;99.90
1417;DHT22;703;51.162;13.574;2022-08-21T08:08:46;19.00;99.90
1417;DHT22;703;51.162;13.574;2022-08-21T08:11:12;19.00;99.90
1417;DHT22;703;51.162;13.574;2022-08-21T08:13:48;19.10;99.90
1417;DHT22;703;51.162;13.574;2022-08-21T08:16:15;19.00;99.90
1417;DHT22;703;51.162;13.574;2022-08-21T08:18:40;19.10;99.90
1417;DHT22;703;51.162;13.574;2022-08-21T08:21:08;19.20;99.90
1417;DHT22;703;51.162;13.574;2022-08-21T08:23:34;19.10;99.90
1417;DHT22;703;51.162;13.574;2022-08-21T08:25:59;19.20;99.90
1417;DHT22;703;51.162;13.574;2022-08-21T08:28:28;19.20;99.90
1417;DHT22;703;51.162;13.574;2022-08-21T08:30:54;19.20;99.90
1417;DHT22;703;51.162;13.574;2022-08-21T08:33:20;19.20;99.90
1417;DHT22;703;51.162;13.574;2022-08-21T08:35:48;19.20;99.90
1417;DHT22;703;51.162;13.574;2022-08-21T08:38:15;19.30;99.90
1417;DHT22;703;51.162;13.574;2022-08-21T08:43:33;19.30;99.90
1417;DHT22;703;51.162;13.574;2022-08-21T08:46:03;19.50;99.90
1417;DHT22;703;51.162;13.574;2022-08-21T08:51:17;19.70;99.90
1417;DHT22;703;51.162;13.574;2022-08-21T08:53:52;19.70;99.90
1417;DHT22;703;51.162;13.574;2022-08-21T08:56:26;19.80;99.90
1417;DHT22;703;51.162;13.574;2022-08-21T08:58:55;19.80;99.90
1417;DHT22;703;51.162;13.574;2022-08-21T09:01:22;19.70;99.90
1417;DHT22;703;51.162;13.574;2022-08-21T09:03:49;19.80;99.90
1417;DHT22;703;51.162;13.574;2022-08-21T09:06:28;19.90;99.90
1417;DHT22;703;51.162;13.574;2022-08-21T09:14:48;20.20;99.90
1417;DHT22;703;51.162;13.574;2022-08-21T09:20:28;20.10;99.90
1417;DHT22;703;51.162;13.574;2022-08-21T09:28:36;20.10;99.90
1417;DHT22;703;51.162;13.574;2022-08-21T09:34:00;20.40;99.90
1417;DHT22;703;51.162;13.574;2022-08-21T09:36:45;20.30;99.90
1417;DHT22;703;51.162;13.574;2022-08-21T09:39:21;20.40;99.90
1417;DHT22;703;51.162;13.574;2022-08-21T09:42:05;20.40;99.90
1417;DHT22;703;51.162;13.574;2022-08-21T09:44:34;20.30;99.90
1417;DHT22;703;51.162;13.574;2022-08-21T09:47:04;20.50;99.90
1417;DHT22;703;51.162;13.574;2022-08-21T09:49:35;20.50;99.90
1417;DHT22;703;51.162;13.574;2022-08-21T09:52:02;20.50;99.90
1417;DHT22;703;51.162;13.574;2022-08-21T09:54:34;22.20;99.90
1417;DHT22;703;51.162;13.574;2022-08-21T09:59:52;21.10;99.90
1417;DHT22;703;51.162;13.574;2022-08-21T10:02:32;21.10;99.90
1417;DHT22;703;51.162;13.574;2022-08-21T10:05:14;21.20;99.90
1417;DHT22;703;51.162;13.574;2022-08-21T10:07:41;21.00;99.90
1417;DHT22;703;51.162;13.574;2022-08-21T10:10:16;21.20;99.90
1417;DHT22;703;51.162;13.574;2022-08-21T10:13:08;21.10;99.90
1417;DHT22;703;51.162;13.574;2022-08-21T10:18:42;21.00;99.90
1417;DHT22;703;51.162;13.574;2022-08-21T10:35:08;21.30;99.90
1417;DHT22;703;51.162;13.574;2022-08-21T10:48:32;21.20;99.90
1417;DHT22;703;51.162;13.574;2022-08-21T10:51:09;21.40;99.90
1417;DHT22;703;51.162;13.574;2022-08-21T10:54:05;21.50;99.90
1417;DHT22;703;51.162;13.574;2022-08-21T10:56:38;21.40;99.90
1417;DHT22;703;51.162;13.574;2022-08-21T11:05:15;21.80;99.90
1417;DHT22;703;51.162;13.574;2022-08-21T11:07:55;21.90;99.90
1417;DHT22;703;51.162;13.574;2022-08-21T11:16:23;22.10;99.90
1417;DHT22;703;51.162;13.574;2022-08-21T11:18:57;22.20;99.90
1417;DHT22;703;51.162;13.574;2022-08-21T11:24:32;21.90;99.90
1417;DHT22;703;51.162;13.574;2022-08-21T11:29:38;22.30;99.90
1417;DHT22;703;51.162;13.574;2022-08-21T11:32:13;22.30;99.90
1417;DHT22;703;51.162;13.574;2022-08-21T11:34:58;22.50;99.90
1417;DHT22;703;51.162;13.574;2022-08-21T11:45:56;22.20;99.90
1417;DHT22;703;51.162;13.574;2022-08-21T11:48:56;22.30;99.90
1417;DHT22;703;51.162;13.574;2022-08-21T11:51:44;22.30;99.90
1417;DHT22;703;51.162;13.574;2022-08-21T11:56:59;22.40;99.90
1417;DHT22;703;51.162;13.574;2022-08-21T11:59:45;22.80;99.90
1417;DHT22;703;51.162;13.574;2022-08-21T12:02:22;22.80;99.90
1417;DHT22;703;51.162;13.574;2022-08-21T12:04:55;22.70;99.90
1417;DHT22;703;51.162;13.574;2022-08-21T12:07:44;22.80;99.90
1417;DHT22;703;51.162;13.574;2022-08-21T12:10:19;22.40;99.90
1417;DHT22;703;51.162;13.574;2022-08-21T12:13:22;22.50;99.90
1417;DHT22;703;51.162;13.574;2022-08-21T12:15:48;22.70;99.90
1417;DHT22;703;51.162;13.574;2022-08-21T12:18:30;22.80;99.90
1417;DHT22;703;51.162;13.574;2022-08-21T12:23:34;23.30;99.90
1417;DHT22;703;51.162;13.574;2022-08-21T12:27:13;23.80;99.90
1417;DHT22;703;51.162;13.574;2022-08-21T12:29:29;24.40;99.90
1417;DHT22;703;51.162;13.574;2022-08-21T12:32:02;24.60;99.90
1417;DHT22;703;51.162;13.574;2022-08-21T12:34:50;24.20;99.90
1417;DHT22;703;51.162;13.574;2022-08-21T12:37:40;24.20;99.90
1417;DHT22;703;51.162;13.574;2022-08-21T12:42:45;23.30;99.90
1417;DHT22;703;51.162;13.574;2022-08-21T12:45:33;23.50;99.90
1417;DHT22;703;51.162;13.574;2022-08-21T12:48:22;23.60;99.90
1417;DHT22;703;51.162;13.574;2022-08-21T12:50:57;23.90;99.90
1417;DHT22;703;51.162;13.574;2022-08-21T12:53:35;24.00;99.90
1417;DHT22;703;51.162;13.574;2022-08-21T12:56:09;24.00;99.90
1417;DHT22;703;51.162;13.574;2022-08-21T12:58:35;23.90;99.90
1417;DHT22;703;51.162;13.574;2022-08-21T13:01:08;23.70;99.90
1417;DHT22;703;51.162;13.574;2022-08-21T13:03:38;23.60;99.90
1417;DHT22;703;51.162;13.574;2022-08-21T13:06:05;23.60;99.90
1417;DHT22;703;51.162;13.574;2022-08-21T13:08:33;23.80;99.90
1417;DHT22;703;51.162;13.574;2022-08-21T13:11:04;23.50;99.90
1417;DHT22;703;51.162;13.574;2022-08-21T13:13:32;23.60;99.90
1417;DHT22;703;51.162;13.574;2022-08-21T13:16:06;23.80;99.90
1417;DHT22;703;51.162;13.574;2022-08-21T13:18:34;23.70;99.90
1417;DHT22;703;51.162;13.574;2022-08-21T13:21:06;23.60;99.90
1417;DHT22;703;51.162;13.574;2022-08-21T13:23:33;24.00;99.90
1417;DHT22;703;51.162;13.574;2022-08-21T13:25:59;23.80;99.90
1417;DHT22;703;51.162;13.574;2022-08-21T13:28:33;23.80;99.90
1417;DHT22;703;51.162;13.574;2022-08-21T13:30:59;23.80;99.90
1417;DHT22;703;51.162;13.574;2022-08-21T13:33:29;23.80;99.90
1417;DHT22;703;51.162;13.574;2022-08-21T13:38:28;23.90;99.90
1417;DHT22;703;51.162;13.574;2022-08-21T13:40:57;23.80;99.90
1417;DHT22;703;51.162;13.574;2022-08-21T13:43:31;24.10;99.90
1417;DHT22;703;51.162;13.574;2022-08-21T13:45:57;24.10;99.90
1417;DHT22;703;51.162;13.574;2022-08-21T13:48:28;24.20;99.90
1417;DHT22;703;51.162;13.574;2022-08-21T13:50:55;24.50;99.90
1417;DHT22;703;51.162;13.574;2022-08-21T13:55:53;24.20;99.90
1417;DHT22;703;51.162;13.574;2022-08-21T13:58:41;23.90;99.90
1417;DHT22;703;51.162;13.574;2022-08-21T14:01:39;24.00;99.90
1417;DHT22;703;51.162;13.574;2022-08-21T14:04:14;24.00;99.90
1417;DHT22;703;51.162;13.574;2022-08-21T14:06:41;23.90;99.90
1417;DHT22;703;51.162;13.574;2022-08-21T14:09:10;23.70;99.90
1417;DHT22;703;51.162;13.574;2022-08-21T14:11:37;23.60;99.90
1417;DHT22;703;51.162;13.574;2022-08-21T14:14:28;23.90;99.90
1417;DHT22;703;51.162;13.574;2022-08-21T14:17:01;23.70;99.90
1417;DHT22;703;51.162;13.574;2022-08-21T14:19:40;23.80;99.90
1417;DHT22;703;51.162;13.574;2022-08-21T14:25:26;23.60;99.90
1417;DHT22;703;51.162;13.574;2022-08-21T14:30:36;24.00;99.90
1417;DHT22;703;51.162;13.574;2022-08-21T14:33:03;23.70;99.90
1417;DHT22;703;51.162;13.574;2022-08-21T14:35:30;23.50;99.90
1417;DHT22;703;51.162;13.574;2022-08-21T14:37:56;23.30;99.90
1417;DHT22;703;51.162;13.574;2022-08-21T14:40:23;23.30;99.90
1417;DHT22;703;51.162;13.574;2022-08-21T14:42:50;23.10;99.90
1417;DHT22;703;51.162;13.574;2022-08-21T14:45:25;23.20;99.90
1417;DHT22;703;51.162;13.574;2022-08-21T14:47:52;23.20;99.90
1417;DHT22;703;51.162;13.574;2022-08-21T14:50:18;23.30;99.90
1417;DHT22;703;51.162;13.574;2022-08-21T14:52:44;23.00;99.90
1417;DHT22;703;51.162;13.574;2022-08-21T14:55:12;22.80;99.90
1417;DHT22;703;51.162;13.574;2022-08-21T14:57:44;22.60;99.90
1417;DHT22;703;51.162;13.574;2022-08-21T15:00:13;22.60;99.90
1417;DHT22;703;51.162;13.574;2022-08-21T15:02:39;22.70;99.90
1417;DHT22;703;51.162;13.574;2022-08-21T15:05:05;22.70;99.90
1417;DHT22;703;51.162;13.574;2022-08-21T15:07:30;22.60;99.90
1417;DHT22;703;51.162;13.574;2022-08-21T15:09:56;22.70;99.90
1417;DHT22;703;51.162;13.574;2022-08-21T15:12:22;22.60;99.90
1417;DHT22;703;51.162;13.574;2022-08-21T15:14:49;22.50;99.90
1417;DHT22;703;51.162;13.574;2022-08-21T15:17:15;22.40;99.90
1417;DHT22;703;51.162;13.574;2022-08-21T15:19:40;22.30;99.90
1417;DHT22;703;51.162;13.574;2022-08-21T15:22:06;22.40;99.90
1417;DHT22;703;51.162;13.574;2022-08-21T15:24:32;22.20;99.90
1417;DHT22;703;51.162;13.574;2022-08-21T15:27:00;22.10;99.90
1417;DHT22;703;51.162;13.574;2022-08-21T15:29:26;22.20;99.90
1417;DHT22;703;51.162;13.574;2022-08-21T15:31:54;22.10;99.90
1417;DHT22;703;51.162;13.574;2022-08-21T15:34:20;19.70;99.90
1417;DHT22;703;51.162;13.574;2022-08-21T15:36:46;22.10;99.90
1417;DHT22;703;51.162;13.574;2022-08-21T15:39:12;22.10;99.90
1417;DHT22;703;51.162;13.574;2022-08-21T15:41:37;22.10;99.90
1417;DHT22;703;51.162;13.574;2022-08-21T15:44:03;22.10;99.90
1417;DHT22;703;51.162;13.574;2022-08-21T15:46:29;22.00;99.90
1417;DHT22;703;51.162;13.574;2022-08-21T15:48:54;22.00;99.90
1417;DHT22;703;51.162;13.574;2022-08-21T15:51:20;22.00;99.90
1417;DHT22;703;51.162;13.574;2022-08-21T15:53:46;22.00;99.90
1417;DHT22;703;51.162;13.574;2022-08-21T15:56:20;22.00;99.90
1417;DHT22;703;51.162;13.574;2022-08-21T15:58:49;22.10;99.90
1417;DHT22;703;51.162;13.574;2022-08-21T16:01:15;22.10;99.90
1417;DHT22;703;51.162;13.574;2022-08-21T16:03:41;22.10;99.90
1417;DHT22;703;51.162;13.574;2022-08-21T16:06:07;22.20;99.90
1417;DHT22;703;51.162;13.574;2022-08-21T16:08:33;22.30;99.90
1417;DHT22;703;51.162;13.574;2022-08-21T16:10:59;22.50;99.90
1417;DHT22;703;51.162;13.574;2022-08-21T16:13:30;22.50;99.90
1417;DHT22;703;51.162;13.574;2022-08-21T16:16:00;22.60;99.90
1417;DHT22;703;51.162;13.574;2022-08-21T16:18:26;22.60;99.90
1417;DHT22;703;51.162;13.574;2022-08-21T16:20:52;22.60;99.90
1417;DHT22;703;51.162;13.574;2022-08-21T16:23:17;22.50;99.90
1417;DHT22;703;51.162;13.574;2022-08-21T16:25:44;22.40;99.90
1417;DHT22;703;51.162;13.574;2022-08-21T16:28:13;22.30;99.90
1417;DHT22;703;51.162;13.574;2022-08-21T16:30:39;22.20;99.90
1417;DHT22;703;51.162;13.574;2022-08-21T16:33:06;22.30;99.90
1417;DHT22;703;51.162;13.574;2022-08-21T16:35:32;22.30;99.90
1417;DHT22;703;51.162;13.574;2022-08-21T16:37:58;22.20;99.90
1417;DHT22;703;51.162;13.574;2022-08-21T16:40:24;22.30;99.90
1417;DHT22;703;51.162;13.574;2022-08-21T16:42:51;22.30;99.90
1417;DHT22;703;51.162;13.574;2022-08-21T16:45:19;22.40;99.90
1417;DHT22;703;51.162;13.574;2022-08-21T16:47:45;22.40;99.90
1417;DHT22;703;51.162;13.574;2022-08-21T16:50:16;22.50;99.90
1417;DHT22;703;51.162;13.574;2022-08-21T16:52:44;22.40;99.90
1417;DHT22;703;51.162;13.574;2022-08-21T16:55:09;22.40;99.90
1417;DHT22;703;51.162;13.574;2022-08-21T16:57:35;22.30;99.90
1417;DHT22;703;51.162;13.574;2022-08-21T17:00:04;22.30;99.90
1417;DHT22;703;51.162;13.574;2022-08-21T17:02:36;22.10;99.90
1417;DHT22;703;51.162;13.574;2022-08-21T17:05:04;22.00;99.90
1417;DHT22;703;51.162;13.574;2022-08-21T17:07:31;22.00;99.90
1417;DHT22;703;51.162;13.574;2022-08-21T17:09:57;22.00;99.90
1417;DHT22;703;51.162;13.574;2022-08-21T17:12:23;21.90;99.90
1417;DHT22;703;51.162;13.574;2022-08-21T17:14:49;21.80;99.90
1417;DHT22;703;51.162;13.574;2022-08-21T17:17:15;21.70;99.90
1417;DHT22;703;51.162;13.574;2022-08-21T17:19:42;21.50;99.90
1417;DHT22;703;51.162;13.574;2022-08-21T17:22:08;21.50;99.90
1417;DHT22;703;51.162;13.574;2022-08-21T17:24:34;21.40;99.90
1417;DHT22;703;51.162;13.574;2022-08-21T17:27:01;21.20;99.90
1417;DHT22;703;51.162;13.574;2022-08-21T17:29:31;21.20;99.90
1417;DHT22;703;51.162;13.574;2022-08-21T17:31:58;21.10;99.90
1417;DHT22;703;51.162;13.574;2022-08-21T17:34:24;21.10;99.90
1417;DHT22;703;51.162;13.574;2022-08-21T17:36:50;21.10;99.90
1417;DHT22;703;51.162;13.574;2022-08-21T17:39:16;20.90;99.90
1417;DHT22;703;51.162;13.574;2022-08-21T17:41:42;20.80;99.90
1417;DHT22;703;51.162;13.574;2022-08-21T17:44:10;20.70;99.90
1417;DHT22;703;51.162;13.574;2022-08-21T17:46:37;20.60;99.90
1417;DHT22;703;51.162;13.574;2022-08-21T17:49:04;20.40;99.90
1417;DHT22;703;51.162;13.574;2022-08-21T17:51:30;20.20;99.90